CPX260 Details

Departure: General Edward Lawrence Logan International Airport (KBOS)
Arrival: Washington Dulles International Airport (KIAD) at N/A
Route: BLZZR4 BLZZR BAF HYPER7
Notes:


Current Weather Information
KBOS 250454Z 36005KT 10SM FEW020 FEW055 18/13 A3030 RMK AO2 SLP259 T01830133 402280167
KIAD 250452Z 32004KT 10SM FEW055 BKN080 BKN250 18/13 A3022 RMK AO2 SLP229 T01830133 402610161 $